sensor_id;sensor_type;location;lat;lon;timestamp;P1;durP1;ratioP1;P2;durP2;ratioP2
18820;SDS011;9539;59.332;18.034;2023-09-19T00:01:51;12.70;;;6.28;;
18820;SDS011;9539;59.332;18.034;2023-09-19T00:04:12;11.10;;;6.70;;
18820;SDS011;9539;59.332;18.034;2023-09-19T00:06:35;13.70;;;6.30;;
18820;SDS011;9539;59.332;18.034;2023-09-19T00:08:57;13.40;;;6.93;;
18820;SDS011;9539;59.332;18.034;2023-09-19T00:11:20;12.48;;;6.90;;
18820;SDS011;9539;59.332;18.034;2023-09-19T00:13:47;13.70;;;6.75;;
18820;SDS011;9539;59.332;18.034;2023-09-19T00:16:10;10.07;;;6.53;;
18820;SDS011;9539;59.332;18.034;2023-09-19T00:18:34;10.32;;;6.90;;
18820;SDS011;9539;59.332;18.034;2023-09-19T00:20:57;11.77;;;7.45;;
18820;SDS011;9539;59.332;18.034;2023-09-19T00:23:19;18.20;;;7.78;;
18820;SDS011;9539;59.332;18.034;2023-09-19T00:25:41;15.63;;;6.93;;
18820;SDS011;9539;59.332;18.034;2023-09-19T00:28:03;15.00;;;7.75;;
18820;SDS011;9539;59.332;18.034;2023-09-19T00:30:26;12.63;;;7.93;;
18820;SDS011;9539;59.332;18.034;2023-09-19T00:32:48;11.73;;;7.15;;
18820;SDS011;9539;59.332;18.034;2023-09-19T00:35:14;11.68;;;8.43;;
18820;SDS011;9539;59.332;18.034;2023-09-19T00:37:36;17.10;;;8.23;;
18820;SDS011;9539;59.332;18.034;2023-09-19T00:39:59;11.95;;;8.10;;
18820;SDS011;9539;59.332;18.034;2023-09-19T00:42:25;16.70;;;9.32;;
18820;SDS011;9539;59.332;18.034;2023-09-19T00:44:48;15.70;;;8.70;;
18820;SDS011;9539;59.332;18.034;2023-09-19T00:47:11;12.95;;;8.40;;
18820;SDS011;9539;59.332;18.034;2023-09-19T00:49:35;14.38;;;9.23;;
18820;SDS011;9539;59.332;18.034;2023-09-19T00:51:59;14.98;;;9.32;;
18820;SDS011;9539;59.332;18.034;2023-09-19T00:54:21;17.38;;;10.23;;
18820;SDS011;9539;59.332;18.034;2023-09-19T00:56:44;20.08;;;10.20;;
18820;SDS011;9539;59.332;18.034;2023-09-19T00:59:09;16.75;;;9.65;;
18820;SDS011;9539;59.332;18.034;2023-09-19T01:01:31;14.07;;;9.25;;
18820;SDS011;9539;59.332;18.034;2023-09-19T01:03:54;16.85;;;9.73;;
18820;SDS011;9539;59.332;18.034;2023-09-19T01:06:16;18.30;;;9.75;;
18820;SDS011;9539;59.332;18.034;2023-09-19T01:08:39;15.80;;;9.85;;
18820;SDS011;9539;59.332;18.034;2023-09-19T01:11:03;14.82;;;9.32;;
18820;SDS011;9539;59.332;18.034;2023-09-19T01:13:34;17.85;;;9.70;;
18820;SDS011;9539;59.332;18.034;2023-09-19T01:16:07;16.42;;;8.23;;
18820;SDS011;9539;59.332;18.034;2023-09-19T01:18:40;15.32;;;8.52;;
18820;SDS011;9539;59.332;18.034;2023-09-19T01:21:11;14.43;;;8.88;;
18820;SDS011;9539;59.332;18.034;2023-09-19T01:23:55;17.98;;;10.35;;
18820;SDS011;9539;59.332;18.034;2023-09-19T01:26:36;15.43;;;9.52;;
18820;SDS011;9539;59.332;18.034;2023-09-19T01:29:17;20.60;;;10.25;;
18820;SDS011;9539;59.332;18.034;2023-09-19T01:32:01;14.52;;;9.77;;
18820;SDS011;9539;59.332;18.034;2023-09-19T01:34:25;22.10;;;10.18;;
18820;SDS011;9539;59.332;18.034;2023-09-19T01:36:47;16.10;;;10.18;;
18820;SDS011;9539;59.332;18.034;2023-09-19T01:39:10;16.25;;;9.95;;
18820;SDS011;9539;59.332;18.034;2023-09-19T01:41:37;12.73;;;9.15;;
18820;SDS011;9539;59.332;18.034;2023-09-19T01:44:11;10.88;;;7.60;;
18820;SDS011;9539;59.332;18.034;2023-09-19T01:46:43;20.30;;;10.38;;
18820;SDS011;9539;59.332;18.034;2023-09-19T01:49:12;17.13;;;10.23;;
18820;SDS011;9539;59.332;18.034;2023-09-19T01:51:46;15.80;;;9.60;;
18820;SDS011;9539;59.332;18.034;2023-09-19T01:54:13;19.25;;;9.80;;
18820;SDS011;9539;59.332;18.034;2023-09-19T01:56:42;14.90;;;9.73;;
18820;SDS011;9539;59.332;18.034;2023-09-19T01:59:10;14.73;;;10.13;;
18820;SDS011;9539;59.332;18.034;2023-09-19T02:01:35;19.88;;;11.60;;
18820;SDS011;9539;59.332;18.034;2023-09-19T02:03:58;19.45;;;10.70;;
18820;SDS011;9539;59.332;18.034;2023-09-19T02:06:22;17.65;;;10.82;;
18820;SDS011;9539;59.332;18.034;2023-09-19T02:08:45;16.67;;;10.63;;
18820;SDS011;9539;59.332;18.034;2023-09-19T02:11:07;17.05;;;11.23;;
18820;SDS011;9539;59.332;18.034;2023-09-19T02:13:29;14.75;;;10.77;;
18820;SDS011;9539;59.332;18.034;2023-09-19T02:15:51;17.52;;;11.25;;
18820;SDS011;9539;59.332;18.034;2023-09-19T02:18:13;20.00;;;10.68;;
18820;SDS011;9539;59.332;18.034;2023-09-19T02:20:35;17.98;;;10.73;;
18820;SDS011;9539;59.332;18.034;2023-09-19T02:22:59;18.92;;;11.80;;
18820;SDS011;9539;59.332;18.034;2023-09-19T02:25:22;16.15;;;10.30;;
18820;SDS011;9539;59.332;18.034;2023-09-19T02:27:46;18.10;;;11.25;;
18820;SDS011;9539;59.332;18.034;2023-09-19T02:30:09;19.63;;;11.70;;
18820;SDS011;9539;59.332;18.034;2023-09-19T02:32:31;19.25;;;11.93;;
18820;SDS011;9539;59.332;18.034;2023-09-19T02:34:56;22.80;;;12.95;;
18820;SDS011;9539;59.332;18.034;2023-09-19T02:37:19;22.38;;;12.75;;
18820;SDS011;9539;59.332;18.034;2023-09-19T02:39:42;22.90;;;13.20;;
18820;SDS011;9539;59.332;18.034;2023-09-19T02:42:05;23.40;;;12.30;;
18820;SDS011;9539;59.332;18.034;2023-09-19T02:44:27;22.73;;;13.98;;
18820;SDS011;9539;59.332;18.034;2023-09-19T02:46:49;20.23;;;14.07;;
18820;SDS011;9539;59.332;18.034;2023-09-19T02:49:11;23.17;;;13.95;;
18820;SDS011;9539;59.332;18.034;2023-09-19T02:51:33;21.33;;;13.48;;
18820;SDS011;9539;59.332;18.034;2023-09-19T02:53:56;27.95;;;15.10;;
18820;SDS011;9539;59.332;18.034;2023-09-19T02:56:19;25.05;;;15.07;;
18820;SDS011;9539;59.332;18.034;2023-09-19T02:58:42;23.05;;;14.70;;
18820;SDS011;9539;59.332;18.034;2023-09-19T03:01:08;21.27;;;12.73;;
18820;SDS011;9539;59.332;18.034;2023-09-19T03:03:31;22.85;;;14.52;;
18820;SDS011;9539;59.332;18.034;2023-09-19T03:05:53;25.83;;;15.52;;
18820;SDS011;9539;59.332;18.034;2023-09-19T03:08:15;22.38;;;13.07;;
18820;SDS011;9539;59.332;18.034;2023-09-19T03:10:38;26.73;;;15.35;;
18820;SDS011;9539;59.332;18.034;2023-09-19T03:13:02;24.58;;;15.82;;
18820;SDS011;9539;59.332;18.034;2023-09-19T03:15:24;24.00;;;15.93;;
18820;SDS011;9539;59.332;18.034;2023-09-19T03:17:47;28.52;;;17.25;;
18820;SDS011;9539;59.332;18.034;2023-09-19T03:20:10;26.90;;;16.35;;
18820;SDS011;9539;59.332;18.034;2023-09-19T03:22:34;22.48;;;14.57;;
18820;SDS011;9539;59.332;18.034;2023-09-19T03:24:56;26.70;;;16.95;;
18820;SDS011;9539;59.332;18.034;2023-09-19T03:27:18;28.85;;;16.58;;
18820;SDS011;9539;59.332;18.034;2023-09-19T03:29:42;29.17;;;17.85;;
18820;SDS011;9539;59.332;18.034;2023-09-19T03:32:04;29.85;;;16.83;;
18820;SDS011;9539;59.332;18.034;2023-09-19T03:34:26;22.05;;;15.85;;
18820;SDS011;9539;59.332;18.034;2023-09-19T03:36:48;27.60;;;15.55;;
18820;SDS011;9539;59.332;18.034;2023-09-19T03:39:11;30.42;;;18.33;;
18820;SDS011;9539;59.332;18.034;2023-09-19T03:41:35;28.40;;;17.15;;
18820;SDS011;9539;59.332;18.034;2023-09-19T03:43:57;29.15;;;18.40;;
18820;SDS011;9539;59.332;18.034;2023-09-19T03:46:21;26.77;;;17.63;;
18820;SDS011;9539;59.332;18.034;2023-09-19T03:48:43;27.35;;;17.50;;
18820;SDS011;9539;59.332;18.034;2023-09-19T03:51:05;31.60;;;18.73;;
18820;SDS011;9539;59.332;18.034;2023-09-19T03:53:27;24.05;;;16.73;;
18820;SDS011;9539;59.332;18.034;2023-09-19T03:55:49;26.40;;;17.73;;
18820;SDS011;9539;59.332;18.034;2023-09-19T03:58:11;29.73;;;18.38;;
18820;SDS011;9539;59.332;18.034;2023-09-19T04:00:33;30.60;;;17.83;;
18820;SDS011;9539;59.332;18.034;2023-09-19T04:02:56;29.23;;;17.60;;
18820;SDS011;9539;59.332;18.034;2023-09-19T04:05:18;25.20;;;18.35;;
18820;SDS011;9539;59.332;18.034;2023-09-19T04:07:40;30.80;;;19.45;;
18820;SDS011;9539;59.332;18.034;2023-09-19T04:10:02;31.92;;;18.92;;
18820;SDS011;9539;59.332;18.034;2023-09-19T04:12:24;32.95;;;19.85;;
18820;SDS011;9539;59.332;18.034;2023-09-19T04:14:46;32.13;;;19.75;;
18820;SDS011;9539;59.332;18.034;2023-09-19T04:17:09;26.23;;;18.80;;
18820;SDS011;9539;59.332;18.034;2023-09-19T04:19:33;30.95;;;19.55;;
18820;SDS011;9539;59.332;18.034;2023-09-19T04:21:54;31.27;;;19.90;;
18820;SDS011;9539;59.332;18.034;2023-09-19T04:24:16;28.10;;;19.65;;
18820;SDS011;9539;59.332;18.034;2023-09-19T04:26:39;33.03;;;20.75;;
18820;SDS011;9539;59.332;18.034;2023-09-19T04:29:01;33.13;;;19.58;;
18820;SDS011;9539;59.332;18.034;2023-09-19T04:31:26;32.80;;;21.08;;
18820;SDS011;9539;59.332;18.034;2023-09-19T04:33:48;29.52;;;20.27;;
18820;SDS011;9539;59.332;18.034;2023-09-19T04:36:11;39.17;;;21.92;;
18820;SDS011;9539;59.332;18.034;2023-09-19T04:38:33;29.48;;;19.90;;
18820;SDS011;9539;59.332;18.034;2023-09-19T04:40:56;31.45;;;19.55;;
18820;SDS011;9539;59.332;18.034;2023-09-19T04:43:19;32.30;;;20.35;;
18820;SDS011;9539;59.332;18.034;2023-09-19T04:45:41;29.85;;;21.00;;
18820;SDS011;9539;59.332;18.034;2023-09-19T04:48:03;32.97;;;20.50;;
18820;SDS011;9539;59.332;18.034;2023-09-19T04:50:26;31.88;;;22.08;;
18820;SDS011;9539;59.332;18.034;2023-09-19T04:52:50;34.95;;;21.25;;
18820;SDS011;9539;59.332;18.034;2023-09-19T04:55:12;31.52;;;21.45;;
18820;SDS011;9539;59.332;18.034;2023-09-19T04:57:37;37.67;;;22.85;;
18820;SDS011;9539;59.332;18.034;2023-09-19T04:59:59;30.90;;;20.63;;
18820;SDS011;9539;59.332;18.034;2023-09-19T05:02:21;35.28;;;22.63;;
18820;SDS011;9539;59.332;18.034;2023-09-19T05:04:43;41.40;;;23.30;;
18820;SDS011;9539;59.332;18.034;2023-09-19T05:07:05;35.15;;;21.63;;
18820;SDS011;9539;59.332;18.034;2023-09-19T05:09:28;31.98;;;21.67;;
18820;SDS011;9539;59.332;18.034;2023-09-19T05:11:50;29.83;;;20.70;;
18820;SDS011;9539;59.332;18.034;2023-09-19T05:14:13;30.70;;;20.92;;
18820;SDS011;9539;59.332;18.034;2023-09-19T05:16:34;34.75;;;19.98;;
18820;SDS011;9539;59.332;18.034;2023-09-19T05:18:56;33.78;;;22.50;;
18820;SDS011;9539;59.332;18.034;2023-09-19T05:21:20;32.97;;;20.08;;
18820;SDS011;9539;59.332;18.034;2023-09-19T05:23:42;35.28;;;22.20;;
18820;SDS011;9539;59.332;18.034;2023-09-19T05:26:06;28.15;;;19.63;;
18820;SDS011;9539;59.332;18.034;2023-09-19T05:28:28;32.42;;;21.05;;
18820;SDS011;9539;59.332;18.034;2023-09-19T05:30:50;33.08;;;22.40;;
18820;SDS011;9539;59.332;18.034;2023-09-19T05:33:13;35.58;;;22.25;;
18820;SDS011;9539;59.332;18.034;2023-09-19T05:35:35;33.53;;;20.52;;
18820;SDS011;9539;59.332;18.034;2023-09-19T05:37:59;30.83;;;21.42;;
18820;SDS011;9539;59.332;18.034;2023-09-19T05:40:21;31.40;;;21.20;;
18820;SDS011;9539;59.332;18.034;2023-09-19T05:42:46;29.70;;;20.27;;
18820;SDS011;9539;59.332;18.034;2023-09-19T05:45:10;29.83;;;20.25;;
18820;SDS011;9539;59.332;18.034;2023-09-19T05:47:32;35.03;;;21.20;;
18820;SDS011;9539;59.332;18.034;2023-09-19T05:49:54;28.33;;;22.70;;
18820;SDS011;9539;59.332;18.034;2023-09-19T05:52:16;29.33;;;19.88;;
18820;SDS011;9539;59.332;18.034;2023-09-19T05:54:39;32.38;;;20.65;;
18820;SDS011;9539;59.332;18.034;2023-09-19T05:57:03;33.42;;;22.05;;
18820;SDS011;9539;59.332;18.034;2023-09-19T05:59:26;29.67;;;21.27;;
18820;SDS011;9539;59.332;18.034;2023-09-19T06:01:48;30.88;;;21.25;;
18820;SDS011;9539;59.332;18.034;2023-09-19T06:04:12;31.70;;;20.35;;
18820;SDS011;9539;59.332;18.034;2023-09-19T06:06:34;32.50;;;20.02;;
18820;SDS011;9539;59.332;18.034;2023-09-19T06:09:00;26.25;;;19.30;;
18820;SDS011;9539;59.332;18.034;2023-09-19T06:11:22;29.33;;;20.88;;
18820;SDS011;9539;59.332;18.034;2023-09-19T06:13:46;29.60;;;21.13;;
18820;SDS011;9539;59.332;18.034;2023-09-19T06:16:10;26.95;;;18.50;;
18820;SDS011;9539;59.332;18.034;2023-09-19T06:18:32;33.63;;;21.30;;
18820;SDS011;9539;59.332;18.034;2023-09-19T06:20:54;32.35;;;21.35;;
18820;SDS011;9539;59.332;18.034;2023-09-19T06:23:16;26.50;;;18.85;;
18820;SDS011;9539;59.332;18.034;2023-09-19T06:25:40;32.90;;;20.42;;
18820;SDS011;9539;59.332;18.034;2023-09-19T06:28:03;30.38;;;20.73;;
18820;SDS011;9539;59.332;18.034;2023-09-19T06:30:28;31.35;;;21.50;;
18820;SDS011;9539;59.332;18.034;2023-09-19T06:32:56;31.30;;;21.40;;
18820;SDS011;9539;59.332;18.034;2023-09-19T06:35:18;28.15;;;20.90;;
18820;SDS011;9539;59.332;18.034;2023-09-19T06:37:42;29.58;;;22.08;;
18820;SDS011;9539;59.332;18.034;2023-09-19T06:40:05;29.88;;;22.27;;
18820;SDS011;9539;59.332;18.034;2023-09-19T06:42:33;32.80;;;22.83;;
18820;SDS011;9539;59.332;18.034;2023-09-19T06:44:57;30.48;;;22.33;;
18820;SDS011;9539;59.332;18.034;2023-09-19T06:47:20;33.25;;;23.23;;
18820;SDS011;9539;59.332;18.034;2023-09-19T06:49:44;29.85;;;20.33;;
18820;SDS011;9539;59.332;18.034;2023-09-19T06:52:05;30.45;;;21.23;;
18820;SDS011;9539;59.332;18.034;2023-09-19T06:54:27;32.95;;;21.60;;
18820;SDS011;9539;59.332;18.034;2023-09-19T06:56:51;29.92;;;22.13;;
18820;SDS011;9539;59.332;18.034;2023-09-19T06:59:15;29.85;;;20.92;;
18820;SDS011;9539;59.332;18.034;2023-09-19T07:01:37;31.67;;;21.70;;
18820;SDS011;9539;59.332;18.034;2023-09-19T07:04:00;27.52;;;20.35;;
18820;SDS011;9539;59.332;18.034;2023-09-19T07:06:23;30.95;;;22.25;;
18820;SDS011;9539;59.332;18.034;2023-09-19T07:08:45;26.92;;;22.10;;
18820;SDS011;9539;59.332;18.034;2023-09-19T07:11:07;33.20;;;22.83;;
18820;SDS011;9539;59.332;18.034;2023-09-19T07:13:29;30.52;;;22.35;;
18820;SDS011;9539;59.332;18.034;2023-09-19T07:15:51;27.00;;;20.13;;
18820;SDS011;9539;59.332;18.034;2023-09-19T07:18:13;25.77;;;19.92;;
18820;SDS011;9539;59.332;18.034;2023-09-19T07:20:36;22.20;;;17.95;;
18820;SDS011;9539;59.332;18.034;2023-09-19T07:23:00;25.65;;;18.30;;
18820;SDS011;9539;59.332;18.034;2023-09-19T07:25:22;22.30;;;18.20;;
18820;SDS011;9539;59.332;18.034;2023-09-19T07:27:44;19.63;;;16.70;;
18820;SDS011;9539;59.332;18.034;2023-09-19T07:30:07;22.85;;;17.38;;
18820;SDS011;9539;59.332;18.034;2023-09-19T07:32:29;23.52;;;17.83;;
18820;SDS011;9539;59.332;18.034;2023-09-19T07:34:51;20.40;;;17.40;;
18820;SDS011;9539;59.332;18.034;2023-09-19T07:37:15;23.20;;;18.77;;
18820;SDS011;9539;59.332;18.034;2023-09-19T07:39:38;22.98;;;18.85;;
18820;SDS011;9539;59.332;18.034;2023-09-19T07:42:06;26.52;;;19.52;;
18820;SDS011;9539;59.332;18.034;2023-09-19T07:44:28;20.77;;;18.58;;
18820;SDS011;9539;59.332;18.034;2023-09-19T07:46:50;24.52;;;19.65;;
18820;SDS011;9539;59.332;18.034;2023-09-19T07:49:12;24.45;;;20.27;;
18820;SDS011;9539;59.332;18.034;2023-09-19T07:51:35;29.33;;;21.67;;
18820;SDS011;9539;59.332;18.034;2023-09-19T07:53:58;29.60;;;20.65;;
18820;SDS011;9539;59.332;18.034;2023-09-19T07:56:22;24.38;;;20.73;;
18820;SDS011;9539;59.332;18.034;2023-09-19T07:58:45;27.27;;;20.67;;
18820;SDS011;9539;59.332;18.034;2023-09-19T08:01:07;27.65;;;21.20;;
18820;SDS011;9539;59.332;18.034;2023-09-19T08:03:30;26.42;;;20.25;;
18820;SDS011;9539;59.332;18.034;2023-09-19T08:05:52;27.08;;;19.60;;
18820;SDS011;9539;59.332;18.034;2023-09-19T08:08:14;28.20;;;21.20;;
18820;SDS011;9539;59.332;18.034;2023-09-19T08:10:36;30.40;;;21.52;;
18820;SDS011;9539;59.332;18.034;2023-09-19T08:13:01;30.73;;;21.42;;
18820;SDS011;9539;59.332;18.034;2023-09-19T08:15:26;27.98;;;20.25;;
18820;SDS011;9539;59.332;18.034;2023-09-19T08:17:48;25.70;;;19.05;;
18820;SDS011;9539;59.332;18.034;2023-09-19T08:20:11;26.00;;;19.95;;
18820;SDS011;9539;59.332;18.034;2023-09-19T08:22:36;27.48;;;19.52;;
18820;SDS011;9539;59.332;18.034;2023-09-19T08:24:58;28.90;;;19.50;;
18820;SDS011;9539;59.332;18.034;2023-09-19T08:27:20;26.65;;;18.77;;
18820;SDS011;9539;59.332;18.034;2023-09-19T08:29:48;26.40;;;17.90;;
18820;SDS011;9539;59.332;18.034;2023-09-19T08:32:11;23.80;;;18.85;;
18820;SDS011;9539;59.332;18.034;2023-09-19T08:34:34;24.67;;;18.33;;
18820;SDS011;9539;59.332;18.034;2023-09-19T08:36:58;25.23;;;17.30;;
18820;SDS011;9539;59.332;18.034;2023-09-19T08:39:21;23.83;;;17.83;;
18820;SDS011;9539;59.332;18.034;2023-09-19T08:41:43;22.67;;;17.05;;
18820;SDS011;9539;59.332;18.034;2023-09-19T08:44:05;24.50;;;16.95;;
18820;SDS011;9539;59.332;18.034;2023-09-19T08:46:28;26.45;;;16.63;;
18820;SDS011;9539;59.332;18.034;2023-09-19T08:48:54;26.98;;;16.88;;
18820;SDS011;9539;59.332;18.034;2023-09-19T08:51:26;22.77;;;16.48;;
18820;SDS011;9539;59.332;18.034;2023-09-19T08:53:51;26.15;;;15.93;;
18820;SDS011;9539;59.332;18.034;2023-09-19T08:56:14;21.70;;;15.10;;
18820;SDS011;9539;59.332;18.034;2023-09-19T08:58:43;23.15;;;15.05;;
18820;SDS011;9539;59.332;18.034;2023-09-19T09:01:08;21.20;;;13.50;;
18820;SDS011;9539;59.332;18.034;2023-09-19T09:03:33;21.08;;;13.02;;
18820;SDS011;9539;59.332;18.034;2023-09-19T09:05:57;16.60;;;11.10;;
18820;SDS011;9539;59.332;18.034;2023-09-19T09:08:19;20.23;;;12.10;;
18820;SDS011;9539;59.332;18.034;2023-09-19T09:10:43;17.30;;;11.27;;
18820;SDS011;9539;59.332;18.034;2023-09-19T09:13:05;18.10;;;10.98;;
18820;SDS011;9539;59.332;18.034;2023-09-19T09:15:29;14.45;;;10.35;;
18820;SDS011;9539;59.332;18.034;2023-09-19T09:17:53;15.18;;;10.05;;
18820;SDS011;9539;59.332;18.034;2023-09-19T09:20:17;13.80;;;10.52;;
18820;SDS011;9539;59.332;18.034;2023-09-19T09:22:40;13.95;;;9.75;;
18820;SDS011;9539;59.332;18.034;2023-09-19T09:25:12;14.63;;;9.52;;
18820;SDS011;9539;59.332;18.034;2023-09-19T09:27:34;14.35;;;9.50;;
18820;SDS011;9539;59.332;18.034;2023-09-19T09:29:56;12.48;;;10.05;;
18820;SDS011;9539;59.332;18.034;2023-09-19T09:32:19;12.75;;;9.57;;
18820;SDS011;9539;59.332;18.034;2023-09-19T09:34:42;11.18;;;8.65;;
18820;SDS011;9539;59.332;18.034;2023-09-19T09:37:06;14.57;;;8.77;;
18820;SDS011;9539;59.332;18.034;2023-09-19T09:39:29;15.32;;;8.82;;
18820;SDS011;9539;59.332;18.034;2023-09-19T09:41:52;11.75;;;8.57;;
18820;SDS011;9539;59.332;18.034;2023-09-19T09:44:14;12.02;;;8.98;;
18820;SDS011;9539;59.332;18.034;2023-09-19T09:46:41;13.52;;;8.60;;
18820;SDS011;9539;59.332;18.034;2023-09-19T09:49:40;10.30;;;7.70;;
18820;SDS011;9539;59.332;18.034;2023-09-19T09:52:01;12.65;;;8.13;;
18820;SDS011;9539;59.332;18.034;2023-09-19T09:54:29;11.43;;;7.93;;
18820;SDS011;9539;59.332;18.034;2023-09-19T09:56:57;10.98;;;7.68;;
18820;SDS011;9539;59.332;18.034;2023-09-19T09:59:49;11.20;;;7.40;;
18820;SDS011;9539;59.332;18.034;2023-09-19T10:02:14;10.55;;;7.18;;
18820;SDS011;9539;59.332;18.034;2023-09-19T10:04:40;10.15;;;7.22;;
18820;SDS011;9539;59.332;18.034;2023-09-19T10:07:22;14.13;;;7.50;;
18820;SDS011;9539;59.332;18.034;2023-09-19T10:09:49;9.93;;;6.72;;
18820;SDS011;9539;59.332;18.034;2023-09-19T10:12:12;10.95;;;7.18;;
18820;SDS011;9539;59.332;18.034;2023-09-19T10:14:37;10.70;;;7.25;;
18820;SDS011;9539;59.332;18.034;2023-09-19T10:17:01;8.32;;;6.60;;
18820;SDS011;9539;59.332;18.034;2023-09-19T10:19:28;15.60;;;6.72;;
18820;SDS011;9539;59.332;18.034;2023-09-19T10:21:54;11.27;;;6.50;;
18820;SDS011;9539;59.332;18.034;2023-09-19T10:24:17;9.73;;;6.43;;
18820;SDS011;9539;59.332;18.034;2023-09-19T10:26:43;10.88;;;6.68;;
18820;SDS011;9539;59.332;18.034;2023-09-19T10:29:07;11.18;;;6.28;;
18820;SDS011;9539;59.332;18.034;2023-09-19T10:31:30;7.75;;;6.53;;
18820;SDS011;9539;59.332;18.034;2023-09-19T10:33:55;9.48;;;5.90;;
18820;SDS011;9539;59.332;18.034;2023-09-19T10:36:17;7.85;;;5.93;;
18820;SDS011;9539;59.332;18.034;2023-09-19T10:38:40;9.18;;;6.30;;
18820;SDS011;9539;59.332;18.034;2023-09-19T10:41:06;9.85;;;5.70;;
18820;SDS011;9539;59.332;18.034;2023-09-19T10:43:32;9.85;;;5.65;;
18820;SDS011;9539;59.332;18.034;2023-09-19T10:45:58;10.02;;;5.60;;
18820;SDS011;9539;59.332;18.034;2023-09-19T10:48:24;7.28;;;6.03;;
18820;SDS011;9539;59.332;18.034;2023-09-19T10:50:48;6.78;;;5.65;;
18820;SDS011;9539;59.332;18.034;2023-09-19T10:53:19;8.88;;;5.82;;
18820;SDS011;9539;59.332;18.034;2023-09-19T10:55:47;8.80;;;5.82;;
18820;SDS011;9539;59.332;18.034;2023-09-19T10:58:12;11.73;;;5.50;;
18820;SDS011;9539;59.332;18.034;2023-09-19T11:03:17;10.45;;;5.75;;
18820;SDS011;9539;59.332;18.034;2023-09-19T11:06:05;11.43;;;5.20;;
18820;SDS011;9539;59.332;18.034;2023-09-19T11:23:21;5.63;;;4.40;;
18820;SDS011;9539;59.332;18.034;2023-09-19T11:25:48;5.60;;;4.22;;
18820;SDS011;9539;59.332;18.034;2023-09-19T11:28:29;7.57;;;4.68;;
18820;SDS011;9539;59.332;18.034;2023-09-19T11:30:56;5.35;;;4.55;;
18820;SDS011;9539;59.332;18.034;2023-09-19T11:33:18;8.57;;;4.10;;
18820;SDS011;9539;59.332;18.034;2023-09-19T11:36:00;4.55;;;3.25;;
18820;SDS011;9539;59.332;18.034;2023-09-19T11:41:38;3.72;;;2.35;;
18820;SDS011;9539;59.332;18.034;2023-09-19T11:46:58;3.17;;;2.10;;
18820;SDS011;9539;59.332;18.034;2023-09-19T11:49:26;6.55;;;2.20;;
18820;SDS011;9539;59.332;18.034;2023-09-19T11:51:51;4.70;;;2.10;;
18820;SDS011;9539;59.332;18.034;2023-09-19T11:54:14;2.25;;;1.80;;
18820;SDS011;9539;59.332;18.034;2023-09-19T11:56:38;5.25;;;1.80;;
18820;SDS011;9539;59.332;18.034;2023-09-19T11:59:11;4.40;;;1.80;;
18820;SDS011;9539;59.332;18.034;2023-09-19T12:01:42;5.13;;;1.88;;
18820;SDS011;9539;59.332;18.034;2023-09-19T12:04:17;5.75;;;2.08;;
18820;SDS011;9539;59.332;18.034;2023-09-19T12:06:45;1.80;;;1.60;;
18820;SDS011;9539;59.332;18.034;2023-09-19T12:09:20;3.22;;;1.90;;
18820;SDS011;9539;59.332;18.034;2023-09-19T12:11:43;3.10;;;1.90;;
18820;SDS011;9539;59.332;18.034;2023-09-19T12:14:05;2.55;;;1.92;;
18820;SDS011;9539;59.332;18.034;2023-09-19T12:16:27;3.58;;;2.00;;
18820;SDS011;9539;59.332;18.034;2023-09-19T12:18:50;3.67;;;1.92;;
18820;SDS011;9539;59.332;18.034;2023-09-19T12:21:24;5.40;;;2.90;;
18820;SDS011;9539;59.332;18.034;2023-09-19T12:23:57;3.83;;;1.90;;
18820;SDS011;9539;59.332;18.034;2023-09-19T12:26:20;5.13;;;2.00;;
18820;SDS011;9539;59.332;18.034;2023-09-19T12:28:44;6.00;;;2.05;;
18820;SDS011;9539;59.332;18.034;2023-09-19T12:31:07;4.20;;;1.95;;
18820;SDS011;9539;59.332;18.034;2023-09-19T12:33:29;6.00;;;2.10;;
18820;SDS011;9539;59.332;18.034;2023-09-19T12:35:57;5.88;;;1.65;;
18820;SDS011;9539;59.332;18.034;2023-09-19T12:38:22;4.57;;;1.80;;
18820;SDS011;9539;59.332;18.034;2023-09-19T12:40:46;2.45;;;1.80;;
18820;SDS011;9539;59.332;18.034;2023-09-19T12:43:11;3.13;;;2.17;;
18820;SDS011;9539;59.332;18.034;2023-09-19T12:45:35;4.30;;;1.83;;
18820;SDS011;9539;59.332;18.034;2023-09-19T12:48:17;7.28;;;2.05;;
18820;SDS011;9539;59.332;18.034;2023-09-19T12:53:25;8.02;;;2.30;;
18820;SDS011;9539;59.332;18.034;2023-09-19T12:55:53;5.10;;;1.90;;
18820;SDS011;9539;59.332;18.034;2023-09-19T12:58:20;7.32;;;2.72;;
18820;SDS011;9539;59.332;18.034;2023-09-19T13:00:42;5.53;;;2.28;;
18820;SDS011;9539;59.332;18.034;2023-09-19T13:03:12;4.40;;;1.90;;
18820;SDS011;9539;59.332;18.034;2023-09-19T13:05:51;3.65;;;1.88;;
18820;SDS011;9539;59.332;18.034;2023-09-19T13:08:17;4.53;;;2.00;;
18820;SDS011;9539;59.332;18.034;2023-09-19T13:13:27;4.28;;;2.20;;
18820;SDS011;9539;59.332;18.034;2023-09-19T13:15:52;3.25;;;2.20;;
18820;SDS011;9539;59.332;18.034;2023-09-19T13:18:14;4.20;;;2.00;;
18820;SDS011;9539;59.332;18.034;2023-09-19T13:20:38;4.32;;;2.00;;
18820;SDS011;9539;59.332;18.034;2023-09-19T13:23:25;5.07;;;2.10;;
18820;SDS011;9539;59.332;18.034;2023-09-19T13:25:47;4.97;;;2.00;;
18820;SDS011;9539;59.332;18.034;2023-09-19T13:28:11;4.22;;;2.33;;
18820;SDS011;9539;59.332;18.034;2023-09-19T13:30:33;3.67;;;1.98;;
18820;SDS011;9539;59.332;18.034;2023-09-19T13:33:05;7.75;;;2.15;;
18820;SDS011;9539;59.332;18.034;2023-09-19T13:35:28;7.28;;;1.70;;
18820;SDS011;9539;59.332;18.034;2023-09-19T13:37:50;4.78;;;2.13;;
18820;SDS011;9539;59.332;18.034;2023-09-19T13:40:12;4.45;;;2.20;;
18820;SDS011;9539;59.332;18.034;2023-09-19T13:42:35;6.07;;;2.42;;
18820;SDS011;9539;59.332;18.034;2023-09-19T13:44:59;3.00;;;2.05;;
18820;SDS011;9539;59.332;18.034;2023-09-19T13:47:21;7.32;;;2.10;;
18820;SDS011;9539;59.332;18.034;2023-09-19T13:49:44;6.07;;;2.20;;
18820;SDS011;9539;59.332;18.034;2023-09-19T13:52:08;4.30;;;2.40;;
18820;SDS011;9539;59.332;18.034;2023-09-19T13:54:33;4.25;;;2.03;;
18820;SDS011;9539;59.332;18.034;2023-09-19T13:56:55;6.05;;;2.28;;
18820;SDS011;9539;59.332;18.034;2023-09-19T13:59:17;7.72;;;2.47;;
18820;SDS011;9539;59.332;18.034;2023-09-19T14:01:40;4.97;;;2.17;;
18820;SDS011;9539;59.332;18.034;2023-09-19T14:04:02;4.53;;;2.08;;
18820;SDS011;9539;59.332;18.034;2023-09-19T14:06:24;5.97;;;1.80;;
18820;SDS011;9539;59.332;18.034;2023-09-19T14:08:46;5.35;;;1.88;;
18820;SDS011;9539;59.332;18.034;2023-09-19T14:11:10;4.60;;;2.40;;
18820;SDS011;9539;59.332;18.034;2023-09-19T14:13:38;4.93;;;1.92;;
18820;SDS011;9539;59.332;18.034;2023-09-19T14:16:07;5.53;;;2.13;;
18820;SDS011;9539;59.332;18.034;2023-09-19T14:18:31;4.85;;;1.80;;
18820;SDS011;9539;59.332;18.034;2023-09-19T14:20:53;4.13;;;1.73;;
18820;SDS011;9539;59.332;18.034;2023-09-19T14:23:15;4.53;;;1.90;;
18820;SDS011;9539;59.332;18.034;2023-09-19T14:25:37;3.53;;;1.70;;
18820;SDS011;9539;59.332;18.034;2023-09-19T14:27:59;3.17;;;1.92;;
18820;SDS011;9539;59.332;18.034;2023-09-19T14:30:21;3.72;;;1.75;;
18820;SDS011;9539;59.332;18.034;2023-09-19T14:32:44;5.35;;;1.75;;
18820;SDS011;9539;59.332;18.034;2023-09-19T14:35:07;3.90;;;1.80;;
18820;SDS011;9539;59.332;18.034;2023-09-19T14:37:30;4.15;;;1.75;;
18820;SDS011;9539;59.332;18.034;2023-09-19T14:39:52;5.28;;;1.80;;
18820;SDS011;9539;59.332;18.034;2023-09-19T14:42:14;5.32;;;1.90;;
18820;SDS011;9539;59.332;18.034;2023-09-19T14:44:37;3.63;;;1.80;;